PWSweather.com
Personal Weather Stations
Station Observations
ISYDDANM23
Felsted, AabenraaDK 6200

FelstedAabenraaDK 6200

Lat: 54.977066, Lon: 9.507192

Elevation: 135

Station Type: Davis Vantage Pro 2 Plus 24H

http://www.valkaer.dk

High Low Average
Temperature 76.5°F24.7°C 59.6°F15.3°C 67.6°F19.8°C
Dew Point 63.6°F17.6°C 53.3°F11.8°C 60.0°F15.6°C
Winds 15.0 mph 24.1 kmh Calm Calm 5.0 mph SSE8.0 kmh SSE
Wind Gusts 24.2 mph38.9 kmh 1.2 mph1.9 kmh 7.0 mph11.3 kmh
Humidity 91% 56% 77%
Pressure 29.83 in1010.2 mb 29.66 in1004.4 mb -
Precipitation 0.08 in2.0 mm - -
Hour Temp Dew Point Humidity Winds Wind Gusts Pressure Precip Precip Rate Daily Precip Total
12:00 AM 61.3°F16.3°C 53.3°F11.8°C 75% 4.6 mph E7.4 kmh E 6.9 mph11.1 kmh 29.74 in1007.1 mb - 0.00 in0.0 mm 0.00 in0.0 mm
12:10 AM 61.2°F16.2°C 53.6°F12.0°C 76% 6.9 mph ESE11.1 kmh ESE 11.5 mph18.5 kmh 29.74 in1007.1 mb - 0.00 in0.0 mm 0.00 in0.0 mm
12:15 AM 61.3°F16.3°C 54.0°F12.2°C 77% 6.9 mph ESE11.1 kmh ESE 10.4 mph16.7 kmh 29.74 in1007.1 mb - 0.00 in0.0 mm 0.00 in0.0 mm
12:20 AM 61.5°F16.4°C 54.2°F12.3°C 77% 8.1 mph E13.0 kmh E 12.7 mph20.4 kmh 29.74 in1007.1 mb - 0.00 in0.0 mm 0.00 in0.0 mm
12:25 AM 61.6°F16.4°C 54.7°F12.6°C 78% 8.1 mph E13.0 kmh E 12.7 mph20.4 kmh 29.74 in1007.1 mb - 0.00 in0.0 mm 0.00 in0.0 mm
12:30 AM 61.7°F16.5°C 54.8°F12.7°C 78% 10.4 mph ESE16.7 kmh ESE 13.8 mph22.2 kmh 29.73 in1006.8 mb - 0.00 in0.0 mm 0.00 in0.0 mm
12:35 AM 61.8°F16.6°C 54.9°F12.7°C 78% 6.9 mph ESE11.1 kmh ESE 11.5 mph18.5 kmh 29.73 in1006.8 mb - 0.00 in0.0 mm 0.00 in0.0 mm
12:40 AM 61.9°F16.6°C 55.4°F13.0°C 79% 8.1 mph ESE13.0 kmh ESE 12.7 mph20.4 kmh 29.73 in1006.8 mb - 0.00 in0.0 mm 0.00 in0.0 mm
12:45 AM 62.1°F16.7°C 55.5°F13.1°C 79% 8.1 mph ESE13.0 kmh ESE 13.8 mph22.2 kmh 29.73 in1006.8 mb - 0.00 in0.0 mm 0.00 in0.0 mm
12:50 AM 62.1°F16.7°C 55.5°F13.1°C 79% 10.4 mph SE16.7 kmh SE 19.6 mph31.5 kmh 29.73 in1006.8 mb - 0.00 in0.0 mm 0.00 in0.0 mm
12:55 AM 62.2°F16.8°C 55.9°F13.3°C 80% 6.9 mph SE11.1 kmh SE 12.7 mph20.4 kmh 29.73 in1006.8 mb - 0.00 in0.0 mm 0.00 in0.0 mm
01:00 AM 62.1°F16.7°C 55.8°F13.2°C 80% 8.1 mph SE13.0 kmh SE 11.5 mph18.5 kmh 29.72 in1006.4 mb - 0.00 in0.0 mm 0.00 in0.0 mm
01:10 AM 62.0°F16.7°C 56.4°F13.6°C 82% 9.2 mph ESE14.8 kmh ESE 13.8 mph22.2 kmh 29.72 in1006.4 mb - 0.00 in0.0 mm 0.00 in0.0 mm
01:15 AM 61.9°F16.6°C 56.3°F13.5°C 82% 15.0 mph ESE24.1 kmh ESE 24.2 mph38.9 kmh 29.71 in1006.1 mb - 0.00 in0.0 mm 0.00 in0.0 mm
01:20 AM 61.7°F16.5°C 56.5°F13.6°C 83% 10.4 mph SE16.7 kmh SE 19.6 mph31.5 kmh 29.70 in1005.8 mb - 0.00 in0.0 mm 0.00 in0.0 mm
01:25 AM 61.7°F16.5°C 56.4°F13.6°C 83% 10.4 mph SE16.7 kmh SE 15.0 mph24.1 kmh 29.71 in1006.1 mb - 0.00 in0.0 mm 0.00 in0.0 mm
01:30 AM 61.6°F16.4°C 56.7°F13.7°C 84% 11.5 mph ESE18.5 kmh ESE 13.8 mph22.2 kmh 29.70 in1005.8 mb - 0.00 in0.0 mm 0.00 in0.0 mm
01:35 AM 61.5°F16.4°C 56.6°F13.7°C 84% 9.2 mph SE14.8 kmh SE 16.1 mph25.9 kmh 29.68 in1005.1 mb - 0.00 in0.0 mm 0.00 in0.0 mm
01:40 AM 61.4°F16.3°C 56.8°F13.8°C 85% 12.7 mph SE20.4 kmh SE 21.9 mph35.2 kmh 29.67 in1004.7 mb - 0.00 in0.0 mm 0.00 in0.0 mm
01:45 AM 61.3°F16.3°C 56.8°F13.8°C 85% 11.5 mph SE18.5 kmh SE 15.0 mph24.1 kmh 29.67 in1004.7 mb - 0.00 in0.0 mm 0.00 in0.0 mm
01:50 AM 61.2°F16.2°C 56.7°F13.7°C 85% 12.7 mph SE20.4 kmh SE 19.6 mph31.5 kmh 29.67 in1004.7 mb - 0.00 in0.0 mm 0.00 in0.0 mm
01:55 AM 61.3°F16.3°C 56.8°F13.8°C 85% 10.4 mph SE16.7 kmh SE 12.7 mph20.4 kmh 29.68 in1005.1 mb - 0.00 in0.0 mm 0.00 in0.0 mm
02:00 AM 61.3°F16.3°C 57.1°F13.9°C 86% 13.8 mph ESE22.2 kmh ESE 20.7 mph33.3 kmh 29.67 in1004.7 mb - 0.05 in1.3 mm 0.05 in1.3 mm
02:10 AM 61.0°F16.1°C 57.1°F13.9°C 87% 12.7 mph SE20.4 kmh SE 18.4 mph29.6 kmh 29.66 in1004.4 mb - 0.06 in1.5 mm 0.06 in1.5 mm
02:15 AM 61.1°F16.2°C 56.9°F13.8°C 86% 11.5 mph SE18.5 kmh SE 17.3 mph27.8 kmh 29.66 in1004.4 mb - 0.06 in1.5 mm 0.06 in1.5 mm
02:20 AM 61.0°F16.1°C 56.8°F13.8°C 86% 12.7 mph SE20.4 kmh SE 16.1 mph25.9 kmh 29.68 in1005.1 mb - 0.06 in1.5 mm 0.06 in1.5 mm
02:25 AM 60.8°F16.0°C 56.9°F13.8°C 87% 12.7 mph SE20.4 kmh SE 19.6 mph31.5 kmh 29.69 in1005.4 mb - 0.06 in1.5 mm 0.06 in1.5 mm
02:30 AM 60.5°F15.8°C 56.6°F13.7°C 87% 10.4 mph SE16.7 kmh SE 19.6 mph31.5 kmh 29.70 in1005.8 mb - 0.06 in1.5 mm 0.06 in1.5 mm
02:35 AM 60.2°F15.7°C 56.6°F13.7°C 88% 10.4 mph SE16.7 kmh SE 13.8 mph22.2 kmh 29.70 in1005.8 mb - 0.06 in1.5 mm 0.06 in1.5 mm
02:40 AM 60.2°F15.7°C 56.9°F13.8°C 89% 11.5 mph SE18.5 kmh SE 11.5 mph18.5 kmh 29.70 in1005.8 mb - 0.08 in2.0 mm 0.08 in2.0 mm
02:45 AM 60.1°F15.6°C 56.8°F13.8°C 89% 8.1 mph SSW13.0 kmh SSW 10.4 mph16.7 kmh 29.70 in1005.8 mb - 0.08 in2.0 mm 0.08 in2.0 mm
02:50 AM 60.4°F15.8°C 57.1°F13.9°C 89% 9.2 mph SSE14.8 kmh SSE 11.5 mph18.5 kmh 29.70 in1005.8 mb - 0.08 in2.0 mm 0.08 in2.0 mm
02:55 AM 60.7°F15.9°C 57.4°F14.1°C 89% 5.8 mph SE9.3 kmh SE 8.1 mph13.0 kmh 29.69 in1005.4 mb - 0.08 in2.0 mm 0.08 in2.0 mm
03:00 AM 60.7°F15.9°C 57.5°F14.2°C 89% 8.1 mph SE13.0 kmh SE 11.5 mph18.5 kmh 29.69 in1005.4 mb - 0.06 in1.5 mm 0.08 in2.0 mm
03:10 AM 61.2°F16.2°C 57.9°F14.4°C 89% 6.9 mph SE11.1 kmh SE 8.1 mph13.0 kmh 29.67 in1004.7 mb - 0.02 in0.5 mm 0.08 in2.0 mm
03:15 AM 61.3°F16.3°C 58.0°F14.4°C 89% 6.9 mph SE11.1 kmh SE 10.4 mph16.7 kmh 29.66 in1004.4 mb - 0.02 in0.5 mm 0.08 in2.0 mm
03:20 AM 61.2°F16.2°C 57.9°F14.4°C 89% 5.8 mph SE9.3 kmh SE 8.1 mph13.0 kmh 29.66 in1004.4 mb - 0.02 in0.5 mm 0.08 in2.0 mm
03:25 AM 61.0°F16.1°C 57.7°F14.3°C 89% 8.1 mph SE13.0 kmh SE 11.5 mph18.5 kmh 29.66 in1004.4 mb - 0.02 in0.5 mm 0.08 in2.0 mm
03:30 AM 60.9°F16.1°C 57.6°F14.2°C 89% 6.9 mph SE11.1 kmh SE 11.5 mph18.5 kmh 29.66 in1004.4 mb - 0.02 in0.5 mm 0.08 in2.0 mm
03:35 AM 60.7°F15.9°C 57.4°F14.1°C 89% 5.8 mph SE9.3 kmh SE 9.2 mph14.8 kmh 29.66 in1004.4 mb - 0.02 in0.5 mm 0.08 in2.0 mm
03:40 AM 60.6°F15.9°C 57.4°F14.1°C 89% 5.8 mph SE9.3 kmh SE 8.1 mph13.0 kmh 29.66 in1004.4 mb - 0.00 in0.0 mm 0.08 in2.0 mm
03:45 AM 60.6°F15.9°C 57.3°F14.1°C 89% 5.8 mph SE9.3 kmh SE 8.1 mph13.0 kmh 29.67 in1004.7 mb - 0.00 in0.0 mm 0.08 in2.0 mm
03:50 AM 60.4°F15.8°C 57.1°F13.9°C 89% 4.6 mph SE7.4 kmh SE 9.2 mph14.8 kmh 29.67 in1004.7 mb - 0.00 in0.0 mm 0.08 in2.0 mm
03:55 AM 60.2°F15.7°C 57.0°F13.9°C 89% 4.6 mph SE7.4 kmh SE 9.2 mph14.8 kmh 29.67 in1004.7 mb - 0.00 in0.0 mm 0.08 in2.0 mm
04:00 AM 60.2°F15.7°C 56.9°F13.8°C 89% 5.8 mph SE9.3 kmh SE 9.2 mph14.8 kmh 29.68 in1005.1 mb - 0.00 in0.0 mm 0.08 in2.0 mm
04:10 AM 59.9°F15.5°C 57.0°F13.9°C 90% 4.6 mph SE7.4 kmh SE 8.1 mph13.0 kmh 29.67 in1004.7 mb - 0.00 in0.0 mm 0.08 in2.0 mm
04:15 AM 59.8°F15.4°C 56.9°F13.8°C 90% 4.6 mph SE7.4 kmh SE 9.2 mph14.8 kmh 29.67 in1004.7 mb - 0.00 in0.0 mm 0.08 in2.0 mm
04:20 AM 59.8°F15.4°C 56.8°F13.8°C 90% 5.8 mph SE9.3 kmh SE 8.1 mph13.0 kmh 29.67 in1004.7 mb - 0.00 in0.0 mm 0.08 in2.0 mm
04:25 AM 59.7°F15.4°C 56.8°F13.8°C 90% 4.6 mph SE7.4 kmh SE 6.9 mph11.1 kmh 29.67 in1004.7 mb - 0.00 in0.0 mm 0.08 in2.0 mm
04:30 AM 59.7°F15.4°C 56.8°F13.8°C 90% 3.5 mph SE5.6 kmh SE 4.6 mph7.4 kmh 29.67 in1004.7 mb - 0.00 in0.0 mm 0.08 in2.0 mm
04:35 AM 59.7°F15.4°C 57.1°F13.9°C 91% 3.5 mph SE5.6 kmh SE 6.9 mph11.1 kmh 29.67 in1004.7 mb - 0.00 in0.0 mm 0.08 in2.0 mm
04:40 AM 59.7°F15.4°C 57.1°F13.9°C 91% 4.6 mph SSE7.4 kmh SSE 6.9 mph11.1 kmh 29.67 in1004.7 mb - 0.00 in0.0 mm 0.08 in2.0 mm
04:45 AM 59.7°F15.4°C 56.8°F13.8°C 90% 4.6 mph SE7.4 kmh SE 6.9 mph11.1 kmh 29.67 in1004.7 mb - 0.00 in0.0 mm 0.08 in2.0 mm
04:50 AM 59.7°F15.4°C 57.1°F13.9°C 91% 3.5 mph SE5.6 kmh SE 4.6 mph7.4 kmh 29.67 in1004.7 mb - 0.00 in0.0 mm 0.08 in2.0 mm
04:55 AM 59.6°F15.3°C 57.0°F13.9°C 91% 3.5 mph SE5.6 kmh SE 4.6 mph7.4 kmh 29.67 in1004.7 mb - 0.00 in0.0 mm 0.08 in2.0 mm
05:00 AM 59.6°F15.3°C 57.0°F13.9°C 91% 2.3 mph SSE3.7 kmh SSE 4.6 mph7.4 kmh 29.67 in1004.7 mb - 0.00 in0.0 mm 0.08 in2.0 mm
05:10 AM 59.7°F15.4°C 57.1°F13.9°C 91% 2.3 mph SSE3.7 kmh SSE 3.5 mph5.6 kmh 29.68 in1005.1 mb - 0.00 in0.0 mm 0.08 in2.0 mm
05:15 AM 59.8°F15.4°C 57.2°F14.0°C 91% 3.5 mph SE5.6 kmh SE 3.5 mph5.6 kmh 29.69 in1005.4 mb - 0.00 in0.0 mm 0.08 in2.0 mm
05:20 AM 59.9°F15.5°C 57.2°F14.0°C 91% 3.5 mph SSE5.6 kmh SSE 5.8 mph9.3 kmh 29.69 in1005.4 mb - 0.00 in0.0 mm 0.08 in2.0 mm
05:25 AM 59.9°F15.5°C 57.3°F14.1°C 91% 2.3 mph S3.7 kmh S 3.5 mph5.6 kmh 29.69 in1005.4 mb - 0.00 in0.0 mm 0.08 in2.0 mm
05:30 AM 60.0°F15.6°C 57.4°F14.1°C 91% Calm Calm 1.2 mph1.9 kmh 29.70 in1005.8 mb - 0.00 in0.0 mm 0.08 in2.0 mm
05:35 AM 60.2°F15.7°C 57.6°F14.2°C 91% 2.3 mph SE3.7 kmh SE 3.5 mph5.6 kmh 29.70 in1005.8 mb - 0.00 in0.0 mm 0.08 in2.0 mm
05:40 AM 60.4°F15.8°C 57.8°F14.3°C 91% 2.3 mph SE3.7 kmh SE 3.5 mph5.6 kmh 29.70 in1005.8 mb - 0.00 in0.0 mm 0.08 in2.0 mm
05:45 AM 60.7°F15.9°C 58.1°F14.5°C 91% 1.2 mph SE1.9 kmh SE 3.5 mph5.6 kmh 29.70 in1005.8 mb - 0.00 in0.0 mm 0.08 in2.0 mm
05:50 AM 61.3°F16.3°C 58.6°F14.8°C 91% 1.2 mph SSE1.9 kmh SSE 4.6 mph7.4 kmh 29.70 in1005.8 mb - 0.00 in0.0 mm 0.08 in2.0 mm
05:55 AM 62.0°F16.7°C 59.3°F15.2°C 91% 2.3 mph S3.7 kmh S 3.5 mph5.6 kmh 29.71 in1006.1 mb - 0.00 in0.0 mm 0.08 in2.0 mm
06:00 AM 62.8°F17.1°C 59.8°F15.4°C 90% 2.3 mph S3.7 kmh S 3.5 mph5.6 kmh 29.71 in1006.1 mb - 0.00 in0.0 mm 0.08 in2.0 mm
06:10 AM 64.1°F17.8°C 60.8°F16.0°C 89% 2.3 mph S3.7 kmh S 3.5 mph5.6 kmh 29.70 in1005.8 mb - 0.00 in0.0 mm 0.08 in2.0 mm
06:15 AM 64.5°F18.1°C 60.9°F16.1°C 88% 3.5 mph S5.6 kmh S 4.6 mph7.4 kmh 29.71 in1006.1 mb - 0.00 in0.0 mm 0.08 in2.0 mm
06:20 AM 65.0°F18.3°C 61.0°F16.1°C 87% 3.5 mph S5.6 kmh S 5.8 mph9.3 kmh 29.71 in1006.1 mb - 0.00 in0.0 mm 0.08 in2.0 mm
06:25 AM 65.6°F18.7°C 61.7°F16.5°C 87% 4.6 mph SSW7.4 kmh SSW 5.8 mph9.3 kmh 29.71 in1006.1 mb - 0.00 in0.0 mm 0.08 in2.0 mm
06:30 AM 66.2°F19.0°C 61.5°F16.4°C 85% 5.8 mph S9.3 kmh S 5.8 mph9.3 kmh 29.71 in1006.1 mb - 0.00 in0.0 mm 0.08 in2.0 mm
06:35 AM 66.7°F19.3°C 62.1°F16.7°C 85% 4.6 mph SSW7.4 kmh SSW 4.6 mph7.4 kmh 29.72 in1006.4 mb - 0.00 in0.0 mm 0.08 in2.0 mm
06:40 AM 67.3°F19.6°C 62.3°F16.8°C 84% 4.6 mph S7.4 kmh S 6.9 mph11.1 kmh 29.71 in1006.1 mb - 0.00 in0.0 mm 0.08 in2.0 mm
06:45 AM 67.5°F19.7°C 62.5°F16.9°C 84% 4.6 mph SW7.4 kmh SW 6.9 mph11.1 kmh 29.72 in1006.4 mb - 0.00 in0.0 mm 0.08 in2.0 mm
06:50 AM 67.9°F19.9°C 61.8°F16.6°C 81% 8.1 mph SW13.0 kmh SW 10.4 mph16.7 kmh 29.72 in1006.4 mb - 0.00 in0.0 mm 0.08 in2.0 mm
06:55 AM 68.0°F20.0°C 61.9°F16.6°C 81% 8.1 mph SW13.0 kmh SW 11.5 mph18.5 kmh 29.73 in1006.8 mb - 0.00 in0.0 mm 0.08 in2.0 mm
07:00 AM 67.9°F19.9°C 61.5°F16.4°C 80% 8.1 mph SW13.0 kmh SW 11.5 mph18.5 kmh 29.73 in1006.8 mb - 0.00 in0.0 mm 0.08 in2.0 mm
07:10 AM 67.8°F19.9°C 61.4°F16.3°C 80% 8.1 mph SW13.0 kmh SW 12.7 mph20.4 kmh 29.73 in1006.8 mb - 0.00 in0.0 mm 0.08 in2.0 mm
07:15 AM 67.7°F19.8°C 61.3°F16.3°C 80% 8.1 mph SW13.0 kmh SW 10.4 mph16.7 kmh 29.73 in1006.8 mb - 0.00 in0.0 mm 0.08 in2.0 mm
07:20 AM 67.9°F19.9°C 61.9°F16.6°C 81% 6.9 mph WSW11.1 kmh WSW 11.5 mph18.5 kmh 29.73 in1006.8 mb - 0.00 in0.0 mm 0.08 in2.0 mm
07:25 AM 68.2°F20.1°C 62.1°F16.7°C 81% 10.4 mph WSW16.7 kmh WSW 12.7 mph20.4 kmh 29.74 in1007.1 mb - 0.00 in0.0 mm 0.08 in2.0 mm
07:30 AM 67.8°F19.9°C 61.7°F16.5°C 81% 8.1 mph SW13.0 kmh SW 11.5 mph18.5 kmh 29.73 in1006.8 mb - 0.00 in0.0 mm 0.08 in2.0 mm
07:35 AM 68.0°F20.0°C 62.6°F17.0°C 83% 5.8 mph SW9.3 kmh SW 9.2 mph14.8 kmh 29.73 in1006.8 mb - 0.00 in0.0 mm 0.08 in2.0 mm
07:40 AM 68.0°F20.0°C 62.3°F16.8°C 82% 11.5 mph WSW18.5 kmh WSW 15.0 mph24.1 kmh 29.74 in1007.1 mb - 0.00 in0.0 mm 0.08 in2.0 mm
07:45 AM 67.6°F19.8°C 61.9°F16.6°C 82% 8.1 mph SW13.0 kmh SW 10.4 mph16.7 kmh 29.74 in1007.1 mb - 0.00 in0.0 mm 0.08 in2.0 mm
07:50 AM 67.1°F19.5°C 61.4°F16.3°C 82% 11.5 mph SW18.5 kmh SW 16.1 mph25.9 kmh 29.74 in1007.1 mb - 0.00 in0.0 mm 0.08 in2.0 mm
07:55 AM 67.0°F19.4°C 61.4°F16.3°C 82% 8.1 mph SW13.0 kmh SW 9.2 mph14.8 kmh 29.74 in1007.1 mb - 0.00 in0.0 mm 0.08 in2.0 mm
08:00 AM 67.2°F19.6°C 62.2°F16.8°C 84% 6.9 mph WSW11.1 kmh WSW 10.4 mph16.7 kmh 29.75 in1007.5 mb - 0.00 in0.0 mm 0.08 in2.0 mm
08:10 AM 67.1°F19.5°C 61.8°F16.6°C 83% 9.2 mph WSW14.8 kmh WSW 10.4 mph16.7 kmh 29.75 in1007.5 mb - 0.00 in0.0 mm 0.08 in2.0 mm
08:15 AM 66.6°F19.2°C 61.3°F16.3°C 83% 11.5 mph WSW18.5 kmh WSW 13.8 mph22.2 kmh 29.76 in1007.8 mb - 0.00 in0.0 mm 0.08 in2.0 mm
08:20 AM 66.1°F18.9°C 60.8°F16.0°C 83% 9.2 mph SW14.8 kmh SW 15.0 mph24.1 kmh 29.76 in1007.8 mb - 0.00 in0.0 mm 0.08 in2.0 mm
08:25 AM 66.2°F19.0°C 60.9°F16.1°C 83% 6.9 mph SW11.1 kmh SW 10.4 mph16.7 kmh 29.76 in1007.8 mb - 0.00 in0.0 mm 0.08 in2.0 mm
08:30 AM 66.4°F19.1°C 61.1°F16.2°C 83% 9.2 mph SW14.8 kmh SW 13.8 mph22.2 kmh 29.77 in1008.1 mb - 0.00 in0.0 mm 0.08 in2.0 mm
08:35 AM 66.4°F19.1°C 61.5°F16.4°C 84% 9.2 mph SW14.8 kmh SW 13.8 mph22.2 kmh 29.77 in1008.1 mb - 0.00 in0.0 mm 0.08 in2.0 mm
08:40 AM 66.5°F19.2°C 61.6°F16.4°C 84% 6.9 mph SW11.1 kmh SW 10.4 mph16.7 kmh 29.77 in1008.1 mb - 0.00 in0.0 mm 0.08 in2.0 mm
08:45 AM 67.0°F19.4°C 61.3°F16.3°C 82% 8.1 mph SW13.0 kmh SW 9.2 mph14.8 kmh 29.77 in1008.1 mb - 0.00 in0.0 mm 0.08 in2.0 mm
08:50 AM 67.2°F19.6°C 61.5°F16.4°C 82% 8.1 mph WSW13.0 kmh WSW 11.5 mph18.5 kmh 29.77 in1008.1 mb - 0.00 in0.0 mm 0.08 in2.0 mm
08:55 AM 67.1°F19.5°C 61.5°F16.4°C 82% 8.1 mph SW13.0 kmh SW 11.5 mph18.5 kmh 29.77 in1008.1 mb - 0.00 in0.0 mm 0.08 in2.0 mm
09:00 AM 67.9°F19.9°C 62.2°F16.8°C 82% 9.2 mph WSW14.8 kmh WSW 10.4 mph16.7 kmh 29.77 in1008.1 mb - 0.00 in0.0 mm 0.08 in2.0 mm
09:10 AM 68.6°F20.3°C 61.8°F16.6°C 79% 8.1 mph SW13.0 kmh SW 11.5 mph18.5 kmh 29.78 in1008.5 mb - 0.00 in0.0 mm 0.08 in2.0 mm
09:15 AM 68.8°F20.4°C 62.0°F16.7°C 79% 8.1 mph SW13.0 kmh SW 11.5 mph18.5 kmh 29.78 in1008.5 mb - 0.00 in0.0 mm 0.08 in2.0 mm
09:20 AM 68.5°F20.3°C 61.4°F16.3°C 78% 10.4 mph SW16.7 kmh SW 11.5 mph18.5 kmh 29.78 in1008.5 mb - 0.00 in0.0 mm 0.08 in2.0 mm
09:25 AM 68.7°F20.4°C 61.6°F16.4°C 78% 9.2 mph SW14.8 kmh SW 11.5 mph18.5 kmh 29.78 in1008.5 mb - 0.00 in0.0 mm 0.08 in2.0 mm
09:30 AM 68.7°F20.4°C 62.3°F16.8°C 80% 6.9 mph WSW11.1 kmh WSW 9.2 mph14.8 kmh 29.78 in1008.5 mb - 0.00 in0.0 mm 0.08 in2.0 mm
09:35 AM 69.0°F20.6°C 61.5°F16.4°C 77% 5.8 mph SW9.3 kmh SW 8.1 mph13.0 kmh 29.78 in1008.5 mb - 0.00 in0.0 mm 0.08 in2.0 mm
09:40 AM 68.7°F20.4°C 61.6°F16.4°C 78% 6.9 mph WSW11.1 kmh WSW 11.5 mph18.5 kmh 29.79 in1008.8 mb - 0.00 in0.0 mm 0.08 in2.0 mm
09:45 AM 68.4°F20.2°C 61.6°F16.4°C 79% 6.9 mph SW11.1 kmh SW 8.1 mph13.0 kmh 29.78 in1008.5 mb - 0.00 in0.0 mm 0.08 in2.0 mm
09:50 AM 68.6°F20.3°C 61.9°F16.6°C 79% 6.9 mph WSW11.1 kmh WSW 8.1 mph13.0 kmh 29.79 in1008.8 mb - 0.00 in0.0 mm 0.08 in2.0 mm
09:55 AM 68.5°F20.3°C 61.7°F16.5°C 79% 5.8 mph WSW9.3 kmh WSW 9.2 mph14.8 kmh 29.80 in1009.1 mb - 0.00 in0.0 mm 0.08 in2.0 mm
10:00 AM 68.4°F20.2°C 61.3°F16.3°C 78% 8.1 mph SW13.0 kmh SW 11.5 mph18.5 kmh 29.80 in1009.1 mb - 0.00 in0.0 mm 0.08 in2.0 mm
10:10 AM 70.1°F21.2°C 62.6°F17.0°C 77% 6.9 mph SW11.1 kmh SW 10.4 mph16.7 kmh 29.80 in1009.1 mb - 0.00 in0.0 mm 0.08 in2.0 mm
10:15 AM 70.1°F21.2°C 62.5°F16.9°C 77% 4.6 mph SW7.4 kmh SW 11.5 mph18.5 kmh 29.80 in1009.1 mb - 0.00 in0.0 mm 0.08 in2.0 mm
10:20 AM 70.0°F21.1°C 61.4°F16.3°C 74% 6.9 mph SW11.1 kmh SW 11.5 mph18.5 kmh 29.81 in1009.5 mb - 0.00 in0.0 mm 0.08 in2.0 mm
10:25 AM 69.1°F20.6°C 62.3°F16.8°C 79% 4.6 mph SW7.4 kmh SW 8.1 mph13.0 kmh 29.81 in1009.5 mb - 0.00 in0.0 mm 0.08 in2.0 mm
10:30 AM 69.5°F20.8°C 62.0°F16.7°C 77% 3.5 mph SSW5.6 kmh SSW 10.4 mph16.7 kmh 29.81 in1009.5 mb - 0.00 in0.0 mm 0.08 in2.0 mm
10:35 AM 70.8°F21.6°C 62.1°F16.7°C 74% 9.2 mph SSW14.8 kmh SSW 11.5 mph18.5 kmh 29.81 in1009.5 mb - 0.00 in0.0 mm 0.08 in2.0 mm
10:40 AM 70.4°F21.3°C 60.9°F16.1°C 72% 4.6 mph SW7.4 kmh SW 4.6 mph7.4 kmh 29.81 in1009.5 mb - 0.00 in0.0 mm 0.08 in2.0 mm
10:45 AM 69.6°F20.9°C 61.7°F16.5°C 76% 6.9 mph W11.1 kmh W 10.4 mph16.7 kmh 29.81 in1009.5 mb - 0.00 in0.0 mm 0.08 in2.0 mm
10:50 AM 69.0°F20.6°C 61.8°F16.6°C 78% 3.5 mph WSW5.6 kmh WSW 5.8 mph9.3 kmh 29.81 in1009.5 mb - 0.00 in0.0 mm 0.08 in2.0 mm
10:55 AM 68.9°F20.5°C 61.0°F16.1°C 76% 4.6 mph WSW7.4 kmh WSW 6.9 mph11.1 kmh 29.80 in1009.1 mb - 0.00 in0.0 mm 0.08 in2.0 mm
11:00 AM 69.8°F21.0°C 61.8°F16.6°C 76% 4.6 mph W7.4 kmh W 8.1 mph13.0 kmh 29.81 in1009.5 mb - 0.00 in0.0 mm 0.08 in2.0 mm
11:10 AM 70.2°F21.2°C 60.7°F15.9°C 72% 4.6 mph WSW7.4 kmh WSW 4.6 mph7.4 kmh 29.80 in1009.1 mb - 0.00 in0.0 mm 0.08 in2.0 mm
11:15 AM 70.9°F21.6°C 62.2°F16.8°C 74% 4.6 mph WSW7.4 kmh WSW 8.1 mph13.0 kmh 29.80 in1009.1 mb - 0.00 in0.0 mm 0.08 in2.0 mm
11:20 AM 70.4°F21.3°C 60.5°F15.8°C 71% 3.5 mph SW5.6 kmh SW 4.6 mph7.4 kmh 29.81 in1009.5 mb - 0.00 in0.0 mm 0.08 in2.0 mm
11:25 AM 69.7°F20.9°C 61.1°F16.2°C 74% 5.8 mph SW9.3 kmh SW 8.1 mph13.0 kmh 29.81 in1009.5 mb - 0.00 in0.0 mm 0.08 in2.0 mm
11:30 AM 69.9°F21.1°C 61.2°F16.2°C 74% 2.3 mph WSW3.7 kmh WSW 3.5 mph5.6 kmh 29.81 in1009.5 mb - 0.00 in0.0 mm 0.08 in2.0 mm
11:35 AM 70.8°F21.6°C 62.5°F16.9°C 75% 3.5 mph WSW5.6 kmh WSW 3.5 mph5.6 kmh 29.81 in1009.5 mb - 0.00 in0.0 mm 0.08 in2.0 mm
11:40 AM 72.6°F22.6°C 63.4°F17.4°C 73% 6.9 mph WSW11.1 kmh WSW 9.2 mph14.8 kmh 29.81 in1009.5 mb - 0.00 in0.0 mm 0.08 in2.0 mm
11:45 AM 70.9°F21.6°C 61.4°F16.3°C 72% 3.5 mph SW5.6 kmh SW 6.9 mph11.1 kmh 29.81 in1009.5 mb - 0.00 in0.0 mm 0.08 in2.0 mm
11:50 AM 70.7°F21.5°C 62.0°F16.7°C 74% 3.5 mph WNW5.6 kmh WNW 3.5 mph5.6 kmh 29.82 in1009.8 mb - 0.00 in0.0 mm 0.08 in2.0 mm
11:55 AM 70.9°F21.6°C 60.6°F15.9°C 70% 3.5 mph SW5.6 kmh SW 5.8 mph9.3 kmh 29.82 in1009.8 mb - 0.00 in0.0 mm 0.08 in2.0 mm
12:00 PM 71.4°F21.9°C 62.3°F16.8°C 73% 2.3 mph SW3.7 kmh SW 4.6 mph7.4 kmh 29.82 in1009.8 mb - 0.00 in0.0 mm 0.08 in2.0 mm
12:10 PM 71.7°F22.1°C 61.4°F16.3°C 70% 4.6 mph SW7.4 kmh SW 4.6 mph7.4 kmh 29.82 in1009.8 mb - 0.00 in0.0 mm 0.08 in2.0 mm
12:15 PM 70.9°F21.6°C 61.4°F16.3°C 72% 2.3 mph WSW3.7 kmh WSW 3.5 mph5.6 kmh 29.82 in1009.8 mb - 0.00 in0.0 mm 0.08 in2.0 mm
12:20 PM 71.7°F22.1°C 60.6°F15.9°C 68% 2.3 mph WSW3.7 kmh WSW 3.5 mph5.6 kmh 29.82 in1009.8 mb - 0.00 in0.0 mm 0.08 in2.0 mm
12:25 PM 72.2°F22.3°C 61.1°F16.2°C 68% Calm Calm 1.2 mph1.9 kmh 29.82 in1009.8 mb - 0.00 in0.0 mm 0.08 in2.0 mm
12:30 PM 73.4°F23.0°C 63.0°F17.2°C 70% 2.3 mph NW3.7 kmh NW 3.5 mph5.6 kmh 29.82 in1009.8 mb - 0.00 in0.0 mm 0.08 in2.0 mm
12:35 PM 72.6°F22.6°C 61.4°F16.3°C 68% 1.2 mph NW1.9 kmh NW 2.3 mph3.7 kmh 29.82 in1009.8 mb - 0.00 in0.0 mm 0.08 in2.0 mm
12:40 PM 73.5°F23.1°C 62.3°F16.8°C 68% 1.2 mph SSW1.9 kmh SSW 2.3 mph3.7 kmh 29.81 in1009.5 mb - 0.00 in0.0 mm 0.08 in2.0 mm
12:45 PM 73.7°F23.2°C 62.5°F16.9°C 68% 5.8 mph WSW9.3 kmh WSW 6.9 mph11.1 kmh 29.82 in1009.8 mb - 0.00 in0.0 mm 0.08 in2.0 mm
12:50 PM 73.8°F23.2°C 62.1°F16.7°C 67% 4.6 mph SW7.4 kmh SW 5.8 mph9.3 kmh 29.82 in1009.8 mb - 0.00 in0.0 mm 0.08 in2.0 mm
12:55 PM 73.6°F23.1°C 62.8°F17.1°C 69% 2.3 mph W3.7 kmh W 3.5 mph5.6 kmh 29.82 in1009.8 mb - 0.00 in0.0 mm 0.08 in2.0 mm
01:00 PM 74.4°F23.6°C 63.1°F17.3°C 68% 4.6 mph W7.4 kmh W 5.8 mph9.3 kmh 29.81 in1009.5 mb - 0.00 in0.0 mm 0.08 in2.0 mm
01:10 PM 74.5°F23.6°C 61.1°F16.2°C 63% 3.5 mph WNW5.6 kmh WNW 9.2 mph14.8 kmh 29.82 in1009.8 mb - 0.00 in0.0 mm 0.08 in2.0 mm
01:15 PM 74.4°F23.6°C 61.9°F16.6°C 65% 3.5 mph N5.6 kmh N 3.5 mph5.6 kmh 29.82 in1009.8 mb - 0.00 in0.0 mm 0.08 in2.0 mm
01:20 PM 75.0°F23.9°C 60.6°F15.9°C 61% 5.8 mph NW9.3 kmh NW 9.2 mph14.8 kmh 29.82 in1009.8 mb - 0.00 in0.0 mm 0.08 in2.0 mm
01:25 PM 74.6°F23.7°C 61.2°F16.2°C 63% 2.3 mph NNW3.7 kmh NNW 8.1 mph13.0 kmh 29.82 in1009.8 mb - 0.00 in0.0 mm 0.08 in2.0 mm
01:30 PM 74.4°F23.6°C 59.6°F15.3°C 60% 3.5 mph NW5.6 kmh NW 6.9 mph11.1 kmh 29.82 in1009.8 mb - 0.00 in0.0 mm 0.08 in2.0 mm
01:35 PM 74.1°F23.4°C 59.8°F15.4°C 61% 3.5 mph W5.6 kmh W 3.5 mph5.6 kmh 29.81 in1009.5 mb - 0.00 in0.0 mm 0.08 in2.0 mm
01:40 PM 74.6°F23.7°C 60.7°F15.9°C 62% 3.5 mph NW5.6 kmh NW 3.5 mph5.6 kmh 29.81 in1009.5 mb - 0.00 in0.0 mm 0.08 in2.0 mm
01:45 PM 74.9°F23.8°C 61.4°F16.3°C 63% 3.5 mph W5.6 kmh W 4.6 mph7.4 kmh 29.81 in1009.5 mb - 0.00 in0.0 mm 0.08 in2.0 mm
01:50 PM 75.1°F23.9°C 62.5°F16.9°C 65% 3.5 mph N5.6 kmh N 5.8 mph9.3 kmh 29.81 in1009.5 mb - 0.00 in0.0 mm 0.08 in2.0 mm
01:55 PM 74.8°F23.8°C 62.3°F16.8°C 65% 2.3 mph N3.7 kmh N 3.5 mph5.6 kmh 29.81 in1009.5 mb - 0.00 in0.0 mm 0.08 in2.0 mm
02:00 PM 75.3°F24.1°C 62.7°F17.1°C 65% 1.2 mph NE1.9 kmh NE 2.3 mph3.7 kmh 29.81 in1009.5 mb - 0.00 in0.0 mm 0.08 in2.0 mm
02:10 PM 75.7°F24.3°C 61.8°F16.6°C 62% 2.3 mph N3.7 kmh N 4.6 mph7.4 kmh 29.81 in1009.5 mb - 0.00 in0.0 mm 0.08 in2.0 mm
02:15 PM 75.4°F24.1°C 58.6°F14.8°C 56% 2.3 mph NE3.7 kmh NE 2.3 mph3.7 kmh 29.81 in1009.5 mb - 0.00 in0.0 mm 0.08 in2.0 mm
02:20 PM 75.6°F24.2°C 60.7°F15.9°C 60% 3.5 mph NE5.6 kmh NE 3.5 mph5.6 kmh 29.81 in1009.5 mb - 0.00 in0.0 mm 0.08 in2.0 mm
02:25 PM 75.3°F24.1°C 59.9°F15.5°C 59% 1.2 mph SE1.9 kmh SE 2.3 mph3.7 kmh 29.81 in1009.5 mb - 0.00 in0.0 mm 0.08 in2.0 mm
02:30 PM 76.5°F24.7°C 62.5°F16.9°C 62% 2.3 mph NW3.7 kmh NW 3.5 mph5.6 kmh 29.81 in1009.5 mb - 0.00 in0.0 mm 0.08 in2.0 mm
02:35 PM 75.4°F24.1°C 60.0°F15.6°C 59% Calm Calm 1.2 mph1.9 kmh 29.82 in1009.8 mb - 0.00 in0.0 mm 0.08 in2.0 mm
02:40 PM 76.0°F24.4°C 61.1°F16.2°C 60% 2.3 mph ENE3.7 kmh ENE 3.5 mph5.6 kmh 29.81 in1009.5 mb - 0.00 in0.0 mm 0.08 in2.0 mm
02:45 PM 76.0°F24.4°C 59.2°F15.1°C 56% 1.2 mph ESE1.9 kmh ESE 3.5 mph5.6 kmh 29.82 in1009.8 mb - 0.00 in0.0 mm 0.08 in2.0 mm
02:50 PM 75.9°F24.4°C 59.6°F15.3°C 57% 1.2 mph ESE1.9 kmh ESE 2.3 mph3.7 kmh 29.82 in1009.8 mb - 0.00 in0.0 mm 0.08 in2.0 mm
02:55 PM 76.2°F24.6°C 63.5°F17.5°C 65% 3.5 mph NNE5.6 kmh NNE 3.5 mph5.6 kmh 29.82 in1009.8 mb - 0.00 in0.0 mm 0.08 in2.0 mm
03:00 PM 75.8°F24.3°C 63.2°F17.3°C 65% 4.6 mph E7.4 kmh E 8.1 mph13.0 kmh 29.82 in1009.8 mb - 0.00 in0.0 mm 0.08 in2.0 mm
03:10 PM 74.7°F23.7°C 62.6°F17.0°C 66% 5.8 mph E9.3 kmh E 8.1 mph13.0 kmh 29.82 in1009.8 mb - 0.00 in0.0 mm 0.08 in2.0 mm
03:15 PM 74.8°F23.8°C 62.7°F17.1°C 66% 2.3 mph E3.7 kmh E 4.6 mph7.4 kmh 29.82 in1009.8 mb - 0.00 in0.0 mm 0.08 in2.0 mm
03:20 PM 74.1°F23.4°C 62.9°F17.2°C 68% 2.3 mph ENE3.7 kmh ENE 3.5 mph5.6 kmh 29.82 in1009.8 mb - 0.00 in0.0 mm 0.08 in2.0 mm
03:25 PM 75.3°F24.1°C 63.1°F17.3°C 66% 3.5 mph ENE5.6 kmh ENE 8.1 mph13.0 kmh 29.82 in1009.8 mb - 0.00 in0.0 mm 0.08 in2.0 mm
03:30 PM 75.7°F24.3°C 63.6°F17.6°C 66% 3.5 mph ENE5.6 kmh ENE 4.6 mph7.4 kmh 29.82 in1009.8 mb - 0.00 in0.0 mm 0.08 in2.0 mm
03:35 PM 74.5°F23.6°C 62.0°F16.7°C 65% 2.3 mph E3.7 kmh E 4.6 mph7.4 kmh 29.83 in1010.2 mb - 0.00 in0.0 mm 0.08 in2.0 mm
03:40 PM 74.0°F23.3°C 61.9°F16.6°C 66% 2.3 mph NE3.7 kmh NE 8.1 mph13.0 kmh 29.83 in1010.2 mb - 0.00 in0.0 mm 0.08 in2.0 mm
03:45 PM 73.7°F23.2°C 61.6°F16.4°C 66% 1.2 mph E1.9 kmh E 3.5 mph5.6 kmh 29.83 in1010.2 mb - 0.00 in0.0 mm 0.08 in2.0 mm
03:50 PM 73.5°F23.1°C 61.9°F16.6°C 67% 3.5 mph NE5.6 kmh NE 4.6 mph7.4 kmh 29.82 in1009.8 mb - 0.00 in0.0 mm 0.08 in2.0 mm
03:55 PM 73.8°F23.2°C 62.2°F16.8°C 67% 3.5 mph ENE5.6 kmh ENE 5.8 mph9.3 kmh 29.82 in1009.8 mb - 0.00 in0.0 mm 0.08 in2.0 mm
04:00 PM 74.3°F23.5°C 63.0°F17.2°C 68% 2.3 mph NE3.7 kmh NE 3.5 mph5.6 kmh 29.82 in1009.8 mb - 0.00 in0.0 mm 0.08 in2.0 mm
04:10 PM 73.9°F23.3°C 61.4°F16.3°C 65% 2.3 mph NE3.7 kmh NE 3.5 mph5.6 kmh 29.82 in1009.8 mb - 0.00 in0.0 mm 0.08 in2.0 mm
04:15 PM 74.5°F23.6°C 61.5°F16.4°C 64% 3.5 mph NE5.6 kmh NE 3.5 mph5.6 kmh 29.82 in1009.8 mb - 0.00 in0.0 mm 0.08 in2.0 mm
04:20 PM 74.5°F23.6°C 62.4°F16.9°C 66% 3.5 mph NE5.6 kmh NE 6.9 mph11.1 kmh 29.82 in1009.8 mb - 0.00 in0.0 mm 0.08 in2.0 mm
04:25 PM 73.9°F23.3°C 61.8°F16.6°C 66% 4.6 mph NE7.4 kmh NE 4.6 mph7.4 kmh 29.81 in1009.5 mb - 0.00 in0.0 mm 0.08 in2.0 mm
04:30 PM 73.8°F23.2°C 62.1°F16.7°C 67% 3.5 mph NNE5.6 kmh NNE 4.6 mph7.4 kmh 29.81 in1009.5 mb - 0.00 in0.0 mm 0.08 in2.0 mm
04:35 PM 73.0°F22.8°C 61.9°F16.6°C 68% 4.6 mph NE7.4 kmh NE 8.1 mph13.0 kmh 29.80 in1009.1 mb - 0.00 in0.0 mm 0.08 in2.0 mm
04:40 PM 72.7°F22.6°C 62.3°F16.8°C 70% 2.3 mph NE3.7 kmh NE 3.5 mph5.6 kmh 29.80 in1009.1 mb - 0.00 in0.0 mm 0.08 in2.0 mm
04:45 PM 72.4°F22.4°C 62.0°F16.7°C 70% 3.5 mph NE5.6 kmh NE 5.8 mph9.3 kmh 29.79 in1008.8 mb - 0.00 in0.0 mm 0.08 in2.0 mm
04:50 PM 72.1°F22.3°C 62.2°F16.8°C 71% 2.3 mph NE3.7 kmh NE 3.5 mph5.6 kmh 29.79 in1008.8 mb - 0.00 in0.0 mm 0.08 in2.0 mm
04:55 PM 72.0°F22.2°C 62.1°F16.7°C 71% 4.6 mph NE7.4 kmh NE 9.2 mph14.8 kmh 29.77 in1008.1 mb - 0.00 in0.0 mm 0.08 in2.0 mm
05:00 PM 71.9°F22.2°C 62.4°F16.9°C 72% 2.3 mph E3.7 kmh E 3.5 mph5.6 kmh 29.79 in1008.8 mb - 0.00 in0.0 mm 0.08 in2.0 mm
05:10 PM 71.5°F21.9°C 62.0°F16.7°C 72% 2.3 mph N3.7 kmh N 2.3 mph3.7 kmh 29.79 in1008.8 mb - 0.00 in0.0 mm 0.08 in2.0 mm
05:15 PM 71.3°F21.8°C 61.8°F16.6°C 72% 2.3 mph NNW3.7 kmh NNW 3.5 mph5.6 kmh 29.80 in1009.1 mb - 0.00 in0.0 mm 0.08 in2.0 mm
05:20 PM 71.2°F21.8°C 61.7°F16.5°C 72% 1.2 mph N1.9 kmh N 1.2 mph1.9 kmh 29.80 in1009.1 mb - 0.00 in0.0 mm 0.08 in2.0 mm
05:25 PM 70.9°F21.6°C 61.1°F16.2°C 71% 3.5 mph N5.6 kmh N 4.6 mph7.4 kmh 29.80 in1009.1 mb - 0.00 in0.0 mm 0.08 in2.0 mm
05:30 PM 70.7°F21.5°C 60.8°F16.0°C 71% 2.3 mph N3.7 kmh N 3.5 mph5.6 kmh 29.80 in1009.1 mb - 0.00 in0.0 mm 0.08 in2.0 mm
05:35 PM 70.6°F21.4°C 60.7°F15.9°C 71% 2.3 mph N3.7 kmh N 3.5 mph5.6 kmh 29.79 in1008.8 mb - 0.00 in0.0 mm 0.08 in2.0 mm
05:40 PM 70.7°F21.5°C 61.2°F16.2°C 72% 2.3 mph N3.7 kmh N 3.5 mph5.6 kmh 29.79 in1008.8 mb - 0.00 in0.0 mm 0.08 in2.0 mm
05:45 PM 70.8°F21.6°C 61.0°F16.1°C 71% 3.5 mph NNE5.6 kmh NNE 4.6 mph7.4 kmh 29.79 in1008.8 mb - 0.00 in0.0 mm 0.08 in2.0 mm
05:50 PM 70.8°F21.6°C 61.3°F16.3°C 72% 3.5 mph NNW5.6 kmh NNW 4.6 mph7.4 kmh 29.79 in1008.8 mb - 0.00 in0.0 mm 0.08 in2.0 mm
05:55 PM 70.6°F21.4°C 61.1°F16.2°C 72% 2.3 mph N3.7 kmh N 3.5 mph5.6 kmh 29.79 in1008.8 mb - 0.00 in0.0 mm 0.08 in2.0 mm
06:00 PM 70.6°F21.4°C 61.5°F16.4°C 73% 1.2 mph N1.9 kmh N 1.2 mph1.9 kmh 29.80 in1009.1 mb - 0.00 in0.0 mm 0.08 in2.0 mm
06:10 PM 70.2°F21.2°C 61.2°F16.2°C 73% 1.2 mph N1.9 kmh N 2.3 mph3.7 kmh 29.80 in1009.1 mb - 0.00 in0.0 mm 0.08 in2.0 mm
06:15 PM 70.2°F21.2°C 61.5°F16.4°C 74% 1.2 mph N1.9 kmh N 2.3 mph3.7 kmh 29.80 in1009.1 mb - 0.00 in0.0 mm 0.08 in2.0 mm
06:20 PM 70.2°F21.2°C 61.5°F16.4°C 74% 1.2 mph N1.9 kmh N 2.3 mph3.7 kmh 29.79 in1008.8 mb - 0.00 in0.0 mm 0.08 in2.0 mm
06:25 PM 70.0°F21.1°C 61.3°F16.3°C 74% 1.2 mph N1.9 kmh N 2.3 mph3.7 kmh 29.80 in1009.1 mb - 0.00 in0.0 mm 0.08 in2.0 mm
06:30 PM 70.0°F21.1°C 61.3°F16.3°C 74% 1.2 mph N1.9 kmh N 3.5 mph5.6 kmh 29.80 in1009.1 mb - 0.00 in0.0 mm 0.08 in2.0 mm
06:35 PM 70.0°F21.1°C 61.3°F16.3°C 74% 1.2 mph N1.9 kmh N 2.3 mph3.7 kmh 29.79 in1008.8 mb - 0.00 in0.0 mm 0.08 in2.0 mm
06:40 PM 70.3°F21.3°C 61.6°F16.4°C 74% 2.3 mph NNE3.7 kmh NNE 2.3 mph3.7 kmh 29.79 in1008.8 mb - 0.00 in0.0 mm 0.08 in2.0 mm
06:45 PM 70.2°F21.2°C 61.5°F16.4°C 74% 2.3 mph NNW3.7 kmh NNW 3.5 mph5.6 kmh 29.79 in1008.8 mb - 0.00 in0.0 mm 0.08 in2.0 mm
06:50 PM 69.9°F21.1°C 62.0°F16.7°C 76% 2.3 mph N3.7 kmh N 3.5 mph5.6 kmh 29.79 in1008.8 mb - 0.00 in0.0 mm 0.08 in2.0 mm
06:55 PM 69.8°F21.0°C 61.5°F16.4°C 75% 2.3 mph NNW3.7 kmh NNW 3.5 mph5.6 kmh 29.79 in1008.8 mb - 0.00 in0.0 mm 0.08 in2.0 mm
07:00 PM 69.8°F21.0°C 61.9°F16.6°C 76% 1.2 mph NNW1.9 kmh NNW 2.3 mph3.7 kmh 29.79 in1008.8 mb - 0.00 in0.0 mm 0.08 in2.0 mm
07:10 PM 69.8°F21.0°C 61.9°F16.6°C 76% 1.2 mph NW1.9 kmh NW 3.5 mph5.6 kmh 29.79 in1008.8 mb - 0.00 in0.0 mm 0.08 in2.0 mm
07:15 PM 69.9°F21.1°C 62.0°F16.7°C 76% Calm Calm 2.3 mph3.7 kmh 29.79 in1008.8 mb - 0.00 in0.0 mm 0.08 in2.0 mm
07:20 PM 69.9°F21.1°C 61.6°F16.4°C 75% 1.2 mph N1.9 kmh N 2.3 mph3.7 kmh 29.79 in1008.8 mb - 0.00 in0.0 mm 0.08 in2.0 mm
07:25 PM 70.0°F21.1°C 61.7°F16.5°C 75% 2.3 mph NNW3.7 kmh NNW 2.3 mph3.7 kmh 29.79 in1008.8 mb - 0.00 in0.0 mm 0.08 in2.0 mm
07:30 PM 70.0°F21.1°C 61.7°F16.5°C 75% 1.2 mph N1.9 kmh N 3.5 mph5.6 kmh 29.79 in1008.8 mb - 0.00 in0.0 mm 0.08 in2.0 mm
07:35 PM 70.2°F21.2°C 61.5°F16.4°C 74% 1.2 mph N1.9 kmh N 3.5 mph5.6 kmh 29.79 in1008.8 mb - 0.00 in0.0 mm 0.08 in2.0 mm
07:40 PM 70.3°F21.3°C 61.2°F16.2°C 73% 2.3 mph N3.7 kmh N 2.3 mph3.7 kmh 29.79 in1008.8 mb - 0.00 in0.0 mm 0.08 in2.0 mm
07:45 PM 70.2°F21.2°C 61.2°F16.2°C 73% 2.3 mph NNE3.7 kmh NNE 3.5 mph5.6 kmh 29.79 in1008.8 mb - 0.00 in0.0 mm 0.08 in2.0 mm
07:50 PM 69.9°F21.1°C 60.8°F16.0°C 73% 2.3 mph N3.7 kmh N 4.6 mph7.4 kmh 29.78 in1008.5 mb - 0.00 in0.0 mm 0.08 in2.0 mm
07:55 PM 69.6°F20.9°C 60.6°F15.9°C 73% 3.5 mph NNE5.6 kmh NNE 4.6 mph7.4 kmh 29.79 in1008.8 mb - 0.00 in0.0 mm 0.08 in2.0 mm
08:00 PM 69.5°F20.8°C 60.1°F15.6°C 72% 4.6 mph NNE7.4 kmh NNE 8.1 mph13.0 kmh 29.79 in1008.8 mb - 0.00 in0.0 mm 0.08 in2.0 mm
08:10 PM 68.9°F20.5°C 59.9°F15.5°C 73% 2.3 mph N3.7 kmh N 3.5 mph5.6 kmh 29.79 in1008.8 mb - 0.00 in0.0 mm 0.08 in2.0 mm
08:15 PM 68.6°F20.3°C 59.6°F15.3°C 73% 2.3 mph NNE3.7 kmh NNE 4.6 mph7.4 kmh 29.78 in1008.5 mb - 0.00 in0.0 mm 0.08 in2.0 mm
08:20 PM 68.4°F20.2°C 59.4°F15.2°C 73% 3.5 mph NNE5.6 kmh NNE 6.9 mph11.1 kmh 29.78 in1008.5 mb - 0.00 in0.0 mm 0.08 in2.0 mm
08:25 PM 68.4°F20.2°C 59.4°F15.2°C 73% 3.5 mph NNE5.6 kmh NNE 5.8 mph9.3 kmh 29.78 in1008.5 mb - 0.00 in0.0 mm 0.08 in2.0 mm
08:30 PM 68.3°F20.2°C 59.3°F15.2°C 73% 3.5 mph NNE5.6 kmh NNE 4.6 mph7.4 kmh 29.78 in1008.5 mb - 0.00 in0.0 mm 0.08 in2.0 mm
08:35 PM 68.2°F20.1°C 59.6°F15.3°C 74% 4.6 mph NNE7.4 kmh NNE 9.2 mph14.8 kmh 29.78 in1008.5 mb - 0.00 in0.0 mm 0.08 in2.0 mm
08:40 PM 68.1°F20.1°C 59.1°F15.1°C 73% 4.6 mph NNE7.4 kmh NNE 5.8 mph9.3 kmh 29.78 in1008.5 mb - 0.00 in0.0 mm 0.08 in2.0 mm
08:45 PM 68.0°F20.0°C 59.4°F15.2°C 74% 4.6 mph NE7.4 kmh NE 4.6 mph7.4 kmh 29.78 in1008.5 mb - 0.00 in0.0 mm 0.08 in2.0 mm
08:50 PM 67.9°F19.9°C 59.3°F15.2°C 74% 3.5 mph NNE5.6 kmh NNE 6.9 mph11.1 kmh 29.78 in1008.5 mb - 0.00 in0.0 mm 0.08 in2.0 mm
08:55 PM 67.8°F19.9°C 58.8°F14.9°C 73% 3.5 mph NNE5.6 kmh NNE 5.8 mph9.3 kmh 29.78 in1008.5 mb - 0.00 in0.0 mm 0.08 in2.0 mm
09:00 PM 67.7°F19.8°C 58.7°F14.8°C 73% 4.6 mph N7.4 kmh N 4.6 mph7.4 kmh 29.78 in1008.5 mb - 0.00 in0.0 mm 0.08 in2.0 mm
09:10 PM 67.4°F19.7°C 59.2°F15.1°C 75% 3.5 mph NNE5.6 kmh NNE 3.5 mph5.6 kmh 29.77 in1008.1 mb - 0.00 in0.0 mm 0.08 in2.0 mm
09:15 PM 67.2°F19.6°C 59.0°F15.0°C 75% 5.8 mph NE9.3 kmh NE 5.8 mph9.3 kmh 29.77 in1008.1 mb - 0.00 in0.0 mm 0.08 in2.0 mm
09:20 PM 67.1°F19.5°C 59.3°F15.2°C 76% 4.6 mph NNE7.4 kmh NNE 8.1 mph13.0 kmh 29.77 in1008.1 mb - 0.00 in0.0 mm 0.08 in2.0 mm
09:25 PM 67.1°F19.5°C 59.3°F15.2°C 76% 4.6 mph NNE7.4 kmh NNE 8.1 mph13.0 kmh 29.77 in1008.1 mb - 0.00 in0.0 mm 0.08 in2.0 mm
09:30 PM 67.0°F19.4°C 59.2°F15.1°C 76% 3.5 mph NNE5.6 kmh NNE 3.5 mph5.6 kmh 29.77 in1008.1 mb - 0.00 in0.0 mm 0.08 in2.0 mm
09:35 PM 66.7°F19.3°C 59.3°F15.2°C 77% 3.5 mph NE5.6 kmh NE 6.9 mph11.1 kmh 29.77 in1008.1 mb - 0.00 in0.0 mm 0.08 in2.0 mm
09:40 PM 66.6°F19.2°C 59.2°F15.1°C 77% 2.3 mph NNE3.7 kmh NNE 3.5 mph5.6 kmh 29.76 in1007.8 mb - 0.00 in0.0 mm 0.08 in2.0 mm
09:45 PM 66.5°F19.2°C 59.1°F15.1°C 77% 4.6 mph NNE7.4 kmh NNE 3.5 mph5.6 kmh 29.76 in1007.8 mb - 0.00 in0.0 mm 0.08 in2.0 mm
09:50 PM 66.6°F19.2°C 59.5°F15.3°C 78% 2.3 mph NNE3.7 kmh NNE 3.5 mph5.6 kmh 29.76 in1007.8 mb - 0.00 in0.0 mm 0.08 in2.0 mm
09:55 PM 66.5°F19.2°C 59.4°F15.2°C 78% 2.3 mph NNE3.7 kmh NNE 3.5 mph5.6 kmh 29.76 in1007.8 mb - 0.00 in0.0 mm 0.08 in2.0 mm
10:00 PM 66.5°F19.2°C 59.8°F15.4°C 79% 4.6 mph NNE7.4 kmh NNE 9.2 mph14.8 kmh 29.76 in1007.8 mb - 0.00 in0.0 mm 0.08 in2.0 mm
10:10 PM 66.5°F19.2°C 59.8°F15.4°C 79% 3.5 mph NNE5.6 kmh NNE 6.9 mph11.1 kmh 29.75 in1007.5 mb - 0.00 in0.0 mm 0.08 in2.0 mm
10:15 PM 66.5°F19.2°C 59.4°F15.2°C 78% 4.6 mph NNE7.4 kmh NNE 5.8 mph9.3 kmh 29.75 in1007.5 mb - 0.00 in0.0 mm 0.08 in2.0 mm
10:20 PM 66.5°F19.2°C 59.4°F15.2°C 78% 4.6 mph NNE7.4 kmh NNE 5.8 mph9.3 kmh 29.75 in1007.5 mb - 0.00 in0.0 mm 0.08 in2.0 mm
10:25 PM 66.4°F19.1°C 59.3°F15.2°C 78% 3.5 mph N5.6 kmh N 8.1 mph13.0 kmh 29.75 in1007.5 mb - 0.00 in0.0 mm 0.08 in2.0 mm
10:30 PM 66.2°F19.0°C 59.5°F15.3°C 79% 3.5 mph NNE5.6 kmh NNE 8.1 mph13.0 kmh 29.75 in1007.5 mb - 0.00 in0.0 mm 0.08 in2.0 mm
10:35 PM 66.0°F18.9°C 59.3°F15.2°C 79% 3.5 mph NNE5.6 kmh NNE 8.1 mph13.0 kmh 29.74 in1007.1 mb - 0.00 in0.0 mm 0.08 in2.0 mm
10:40 PM 65.8°F18.8°C 59.1°F15.1°C 79% 4.6 mph NE7.4 kmh NE 10.4 mph16.7 kmh 29.74 in1007.1 mb - 0.00 in0.0 mm 0.08 in2.0 mm
10:45 PM 65.6°F18.7°C 59.3°F15.2°C 80% 4.6 mph NNE7.4 kmh NNE 9.2 mph14.8 kmh 29.74 in1007.1 mb - 0.00 in0.0 mm 0.08 in2.0 mm
10:50 PM 65.5°F18.6°C 59.2°F15.1°C 80% 4.6 mph NNE7.4 kmh NNE 10.4 mph16.7 kmh 29.74 in1007.1 mb - 0.00 in0.0 mm 0.08 in2.0 mm
10:55 PM 65.4°F18.6°C 59.1°F15.1°C 80% 5.8 mph NNE9.3 kmh NNE 5.8 mph9.3 kmh 29.74 in1007.1 mb - 0.00 in0.0 mm 0.08 in2.0 mm
11:00 PM 65.2°F18.4°C 58.9°F14.9°C 80% 4.6 mph NNE7.4 kmh NNE 5.8 mph9.3 kmh 29.74 in1007.1 mb - 0.00 in0.0 mm 0.91 in23.1 mm
11:10 PM 64.9°F18.3°C 58.9°F14.9°C 81% 3.5 mph NNE5.6 kmh NNE 6.9 mph11.1 kmh 29.73 in1006.8 mb - 0.00 in0.0 mm 0.91 in23.1 mm
11:15 PM 64.7°F18.2°C 58.7°F14.8°C 81% 4.6 mph NE7.4 kmh NE 4.6 mph7.4 kmh 29.73 in1006.8 mb - 0.00 in0.0 mm 0.91 in23.1 mm
11:20 PM 64.5°F18.1°C 58.6°F14.8°C 81% 3.5 mph NE5.6 kmh NE 8.1 mph13.0 kmh 29.73 in1006.8 mb - 0.00 in0.0 mm 0.91 in23.1 mm
11:25 PM 64.3°F17.9°C 58.7°F14.8°C 82% 3.5 mph NNE5.6 kmh NNE 6.9 mph11.1 kmh 29.73 in1006.8 mb - 0.00 in0.0 mm 0.91 in23.1 mm
11:30 PM 64.2°F17.9°C 58.6°F14.8°C 82% 2.3 mph NNE3.7 kmh NNE 3.5 mph5.6 kmh 29.72 in1006.4 mb - 0.00 in0.0 mm 0.91 in23.1 mm
11:35 PM 64.0°F17.8°C 58.4°F14.7°C 82% 3.5 mph NNE5.6 kmh NNE 4.6 mph7.4 kmh 29.72 in1006.4 mb - 0.00 in0.0 mm 0.91 in23.1 mm
11:40 PM 63.9°F17.7°C 58.6°F14.8°C 83% 3.5 mph NNE5.6 kmh NNE 5.8 mph9.3 kmh 29.72 in1006.4 mb - 0.00 in0.0 mm 0.91 in23.1 mm
11:45 PM 63.8°F17.7°C 58.5°F14.7°C 83% 3.5 mph NNE5.6 kmh NNE 4.6 mph7.4 kmh 29.72 in1006.4 mb - 0.00 in0.0 mm 0.91 in23.1 mm
11:50 PM 63.5°F17.5°C 58.6°F14.8°C 84% 3.5 mph NNE5.6 kmh NNE 3.5 mph5.6 kmh 29.72 in1006.4 mb - 0.00 in0.0 mm 0.91 in23.1 mm
11:55 PM 63.5°F17.5°C 58.6°F14.8°C 84% 4.6 mph NE7.4 kmh NE 6.9 mph11.1 kmh 29.72 in1006.4 mb - 0.00 in0.0 mm 0.91 in23.1 mm